Time;durP1;ratioP1;P1;durP2;ratioP2;P2;SDS_P1;SDS_P2;PMS_P1;PMS_P2;Temp;Humidity;BMP_temperature;BMP_pressure;BME280_temperature;BME280_humidity;BME280_pressure;Samples;Min_cycle;Max_cycle;Signal;HPM_P1;HPM_P2
2021/03/27 00:01:14;;;;;;;100.83;56.47;;;;;;;7.61;51.82;99249.48;2179558;81;21154;-79
2021/03/27 00:04:15;;;;;;;98.60;53.13;;;;;;;7.54;52.10;99256.62;2179507;81;21165;-77
2021/03/27 00:07:16;;;;;;;102.83;58.37;;;;;;;7.48;52.73;99261.63;2179840;81;21151;-78
2021/03/27 00:10:17;;;;;;;100.00;57.27;;;;;;;7.42;52.67;99260.14;2179172;81;21347;-79
2021/03/27 00:13:18;;;;;;;106.83;59.30;;;;;;;7.37;52.96;99255.22;2178614;81;21137;-78
2021/03/27 00:16:19;;;;;;;105.03;59.23;;;;;;;7.29;53.42;99252.81;2178338;81;21110;-78
2021/03/27 00:19:21;;;;;;;103.07;58.53;;;;;;;7.24;53.86;99249.19;2178066;81;21151;-77
2021/03/27 00:22:22;;;;;;;413.33;291.33;;;;;;;7.18;53.90;99245.09;2178480;81;21149;-78
2021/03/27 00:25:23;;;;;;;522.37;385.17;;;;;;;8.68;61.51;99242.56;2179656;81;21162;-80
2021/03/27 00:28:24;;;;;;;164.30;102.23;;;;;;;12.54;55.28;99233.15;2179525;81;21138;-78
2021/03/27 00:31:25;;;;;;;107.60;65.50;;;;;;;13.47;46.99;99234.41;2178697;81;21129;-78
2021/03/27 00:34:26;;;;;;;99.07;58.40;;;;;;;12.05;45.51;99239.12;2179247;81;21284;-77
2021/03/27 00:37:27;;;;;;;95.87;56.07;;;;;;;10.70;46.45;99240.52;2179134;81;21109;-78
2021/03/27 00:40:28;;;;;;;95.17;56.90;;;;;;;9.72;47.72;99240.70;2179173;82;21154;-78
2021/03/27 00:43:29;;;;;;;98.03;57.00;;;;;;;8.93;49.13;99240.61;2178883;81;21257;-77
2021/03/27 00:46:31;;;;;;;95.00;57.23;;;;;;;8.32;50.57;99240.69;2179365;82;21146;-78
2021/03/27 00:49:32;;;;;;;99.57;59.00;;;;;;;7.85;51.43;99238.95;2179901;81;21170;-79
2021/03/27 00:52:33;;;;;;;98.00;58.03;;;;;;;7.51;52.36;99242.24;2179718;81;21280;-77
2021/03/27 00:55:34;;;;;;;103.47;57.47;;;;;;;7.22;53.11;99240.47;2179532;82;21141;-77
2021/03/27 00:58:35;;;;;;;106.10;58.53;;;;;;;6.98;53.75;99237.98;2179401;81;21204;-78
2021/03/27 01:01:36;;;;;;;91.23;55.83;;;;;;;6.77;54.43;99234.23;2179218;81;21118;-78
2021/03/27 01:04:37;;;;;;;97.73;57.17;;;;;;;6.53;55.31;99234.72;2180004;81;21098;-78
2021/03/27 01:07:38;;;;;;;102.70;58.17;;;;;;;6.32;56.18;99226.67;2180346;81;21122;-80
2021/03/27 01:10:39;;;;;;;99.27;58.20;;;;;;;6.18;56.86;99221.84;2180491;81;21154;-78
2021/03/27 01:13:40;;;;;;;99.47;57.53;;;;;;;6.03;57.48;99221.73;2180340;81;21150;-78
2021/03/27 01:16:41;;;;;;;101.90;56.93;;;;;;;5.92;57.83;99222.17;2180669;81;21223;-78
2021/03/27 01:19:45;;;;;;;104.20;58.30;;;;;;;5.75;58.20;99219.81;2180447;81;21241;-79
2021/03/27 01:22:46;;;;;;;99.45;56.70;;;;;;;5.65;58.71;99217.72;2180474;81;21165;-77
2021/03/27 01:25:54;;;;;;;103.20;58.07;;;;;;;5.54;59.08;99212.55;2179755;81;21388;-79
2021/03/27 01:28:55;;;;;;;102.87;57.53;;;;;;;5.46;59.47;99216.97;2179036;82;21165;-79
2021/03/27 01:31:56;;;;;;;105.20;56.70;;;;;;;5.36;59.81;99214.45;2178856;81;21153;-78
2021/03/27 01:34:57;;;;;;;95.23;52.57;;;;;;;5.29;60.29;99215.03;2179130;81;21248;-78
2021/03/27 01:38:01;;;;;;;98.27;56.60;;;;;;;5.22;60.63;99219.50;2179007;81;21448;-78
2021/03/27 01:41:02;;;;;;;91.77;54.73;;;;;;;5.14;60.87;99214.00;2178926;81;21139;-78
2021/03/27 01:44:03;;;;;;;96.27;55.37;;;;;;;5.08;60.59;99210.76;2178959;81;21138;-78
2021/03/27 01:47:04;;;;;;;101.03;55.43;;;;;;;5.03;61.68;99204.52;2178534;81;21415;-78
2021/03/27 01:50:06;;;;;;;102.97;55.57;;;;;;;4.98;61.12;99207.34;2178522;81;21154;-78
2021/03/27 01:53:07;;;;;;;96.53;55.13;;;;;;;4.95;62.66;99192.11;2178084;82;21423;-78
2021/03/27 01:56:08;;;;;;;98.60;55.27;;;;;;;4.88;61.44;99205.21;2178167;81;21126;-78
2021/03/27 01:59:12;;;;;;;100.53;53.77;;;;;;;4.86;61.68;99196.51;2179643;81;21126;-78
2021/03/27 02:02:13;;;;;;;91.70;52.17;;;;;;;4.88;62.15;99193.57;2179141;81;21425;-78
2021/03/27 02:05:14;;;;;;;182.93;96.87;;;;;;;4.89;61.87;99200.51;2180453;81;21146;-81
2021/03/27 02:08:15;;;;;;;159.90;85.30;;;;;;;7.40;65.61;99193.41;2180823;81;21391;-80
2021/03/27 02:11:18;;;;;;;108.33;63.27;;;;;;;10.33;58.53;99187.19;2181011;81;21299;-80
2021/03/27 02:14:19;;;;;;;92.90;55.40;;;;;;;12.41;55.92;99183.71;2180708;81;21256;-78
2021/03/27 02:17:20;;;;;;;83.50;49.30;;;;;;;13.68;50.73;99176.83;2178730;81;21149;-79
2021/03/27 02:20:21;;;;;;;82.67;52.27;;;;;;;11.97;46.45;99179.28;2178800;81;21142;-78
2021/03/27 02:23:22;;;;;;;96.00;55.17;;;;;;;9.93;48.04;99182.48;2178924;81;21161;-78
2021/03/27 02:26:23;;;;;;;90.17;54.33;;;;;;;8.60;50.06;99194.19;2178858;81;21149;-78
2021/03/27 02:29:27;;;;;;;88.10;53.60;;;;;;;7.72;52.11;99193.92;2179206;81;21264;-77
2021/03/27 02:32:28;;;;;;;92.30;54.23;;;;;;;6.98;53.38;99197.75;2179130;82;21413;-77
2021/03/27 02:35:29;;;;;;;90.00;52.37;;;;;;;6.44;54.49;99199.39;2178789;81;21419;-78
2021/03/27 02:38:31;;;;;;;149.60;58.57;;;;;;;6.03;55.92;99198.41;2179098;81;21240;-77
2021/03/27 02:41:32;;;;;;;105.17;56.43;;;;;;;5.66;56.46;99193.58;2178932;81;21141;-77
2021/03/27 02:44:33;;;;;;;94.07;53.87;;;;;;;5.43;57.42;99196.61;2179236;81;21269;-78
2021/03/27 02:47:34;;;;;;;125.40;57.47;;;;;;;5.22;57.79;99197.09;2178984;81;21139;-77
2021/03/27 02:50:37;;;;;;;89.47;53.50;;;;;;;5.03;58.64;99200.64;2178948;81;21172;-77
2021/03/27 02:53:38;;;;;;;101.83;55.37;;;;;;;4.90;59.20;99191.05;2178851;82;21157;-77
2021/03/27 02:56:39;;;;;;;96.07;53.70;;;;;;;4.74;59.84;99190.44;2178933;81;21603;-77
2021/03/27 02:59:41;;;;;;;102.20;57.37;;;;;;;4.60;60.43;99181.24;2178959;81;21134;-78
2021/03/27 03:02:42;;;;;;;98.93;56.10;;;;;;;4.49;60.79;99191.55;2178799;82;21159;-78
2021/03/27 03:05:43;;;;;;;100.27;54.57;;;;;;;4.44;61.37;99191.36;2178773;81;21130;-78
2021/03/27 03:08:44;;;;;;;95.33;55.73;;;;;;;4.46;62.32;99197.89;2178987;81;21236;-78
2021/03/27 03:11:45;;;;;;;98.03;56.20;;;;;;;4.45;61.95;99195.72;2178504;81;21121;-78
2021/03/27 03:14:46;;;;;;;100.97;55.43;;;;;;;4.39;61.91;99187.70;2178722;81;21134;-77
2021/03/27 03:17:47;;;;;;;111.83;61.73;;;;;;;4.34;62.10;99190.92;2178128;82;21775;-78
2021/03/27 03:20:48;;;;;;;105.10;57.13;;;;;;;4.31;62.28;99184.30;2178086;81;21122;-78
2021/03/27 03:23:49;;;;;;;102.13;56.57;;;;;;;4.31;62.58;99182.59;2178529;81;21272;-79
2021/03/27 03:26:50;;;;;;;105.93;57.63;;;;;;;4.28;62.95;99170.84;2178264;81;21149;-78
2021/03/27 03:29:51;;;;;;;102.37;56.93;;;;;;;4.29;63.11;99167.44;2178791;81;21357;-78
2021/03/27 03:32:53;;;;;;;106.47;57.87;;;;;;;4.28;62.98;99165.67;2178968;81;21126;-78
2021/03/27 03:35:54;;;;;;;113.30;58.63;;;;;;;4.22;62.98;99166.70;2178765;81;21314;-78
2021/03/27 03:38:55;;;;;;;101.10;57.27;;;;;;;4.21;62.96;99162.77;2178855;81;21423;-78
2021/03/27 03:41:56;;;;;;;100.53;57.30;;;;;;;4.17;63.26;99161.76;2178369;81;21123;-77
2021/03/27 03:44:57;;;;;;;109.00;59.40;;;;;;;4.14;63.47;99162.52;2178022;81;21400;-78
2021/03/27 03:48:02;;;;;;;101.53;57.23;;;;;;;4.13;63.75;99161.16;2178745;81;21526;-77
2021/03/27 03:51:01;;;;;;;109.23;57.47;;;;;;;4.10;63.62;99156.74;2178077;82;21175;-79
2021/03/27 03:54:02;;;;;;;111.23;60.00;;;;;;;4.05;64.53;99157.37;2164985;81;21586;-78
2021/03/27 03:57:03;;;;;;;117.27;62.60;;;;;;;4.06;63.89;99157.84;2160661;82;21134;-79
2021/03/27 04:00:04;;;;;;;104.03;58.87;;;;;;;4.04;64.14;99147.85;2161132;82;21577;-78
2021/03/27 04:03:05;;;;;;;111.60;59.37;;;;;;;4.04;64.00;99151.73;2160732;82;21535;-78
2021/03/27 04:06:06;;;;;;;104.63;56.43;;;;;;;4.00;64.47;99148.13;2160019;82;21280;-78
2021/03/27 04:09:07;;;;;;;107.47;60.57;;;;;;;3.98;64.69;99148.48;2160541;82;21166;-77
2021/03/27 04:12:08;;;;;;;122.33;66.83;;;;;;;3.96;64.35;99146.64;2161554;82;21131;-77
2021/03/27 04:15:10;;;;;;;112.30;59.50;;;;;;;5.59;72.75;99138.92;2161434;82;21261;-79
2021/03/27 04:18:11;;;;;;;113.07;64.07;;;;;;;9.29;67.81;99119.89;2161121;82;21539;-78
2021/03/27 04:21:12;;;;;;;105.13;64.10;;;;;;;11.86;62.29;99118.12;2161392;82;21130;-78
2021/03/27 04:24:13;;;;;;;530.70;93.33;;;;;;;14.76;49.78;99112.81;2161229;82;21538;-78
2021/03/27 04:27:14;;;;;;;134.50;65.30;;;;;;;14.76;49.78;99112.81;2161766;82;21249;-78
2021/03/27 04:30:16;;;;;;;106.40;62.67;;;;;;;15.65;47.53;99108.71;2162329;82;21630;-78
2021/03/27 04:33:17;;;;;;;110.33;63.00;;;;;;;16.19;45.36;99109.73;2161766;82;21523;-80
2021/03/27 04:36:18;;;;;;;118.42;53.80;;;;;;;16.86;43.06;99105.75;2162150;82;21397;-79
2021/03/27 04:39:19;;;;;;;93.00;61.25;;;;;;;17.49;38.49;99108.63;2161779;82;21103;-80
2021/03/27 04:42:20;;;;;;;93.65;61.18;;;;;;;17.35;38.00;99110.55;2161926;82;21151;-79
2021/03/27 04:45:21;;;;;;;97.57;62.43;;;;;;;17.15;37.31;99108.09;2161313;82;21115;-78
2021/03/27 04:48:22;;;;;;;98.33;60.85;;;;;;;17.46;36.55;99112.62;2159721;82;21258;-78
2021/03/27 04:51:27;;;;;;;91.05;58.00;;;;;;;16.02;35.40;99115.98;2160164;82;21332;-78
2021/03/27 04:54:28;;;;;;;87.25;59.05;;;;;;;13.04;38.27;99115.71;2169425;81;21276;-78
2021/03/27 04:57:29;;;;;;;96.37;61.30;;;;;;;10.93;41.35;99123.81;2176806;81;21420;-78
2021/03/27 05:00:30;;;;;;;93.33;60.55;;;;;;;9.54;44.12;99130.01;2178251;81;21373;-78
2021/03/27 05:03:31;;;;;;;103.07;60.60;;;;;;;8.56;46.58;99132.51;2177186;82;21257;-78
2021/03/27 05:06:32;;;;;;;99.13;57.50;;;;;;;7.91;49.28;99140.77;2176216;81;21544;-77
2021/03/27 05:09:33;;;;;;;101.80;61.80;;;;;;;7.49;50.52;99143.02;2175657;81;21133;-78
2021/03/27 05:12:36;;;;;;;103.83;62.60;;;;;;;7.23;51.34;99139.67;2176122;81;21272;-77
2021/03/27 05:15:37;;;;;;;105.57;65.03;;;;;;;7.06;52.35;99138.29;2175946;81;21249;-77
2021/03/27 05:18:38;;;;;;;115.27;63.87;;;;;;;6.92;52.93;99137.42;2176196;81;21272;-77
2021/03/27 05:21:39;;;;;;;99.27;61.80;;;;;;;6.81;53.76;99137.92;2176451;81;21125;-77
2021/03/27 05:24:40;;;;;;;101.17;61.63;;;;;;;6.71;54.83;99140.22;2176444;81;21129;-77
2021/03/27 05:27:41;;;;;;;102.57;61.60;;;;;;;6.65;54.82;99136.55;2176695;81;21245;-78
2021/03/27 05:30:42;;;;;;;100.40;59.93;;;;;;;6.67;55.13;99141.38;2176111;81;21283;-77
2021/03/27 05:33:43;;;;;;;100.67;62.00;;;;;;;6.68;55.67;99141.84;2176470;81;21252;-77
2021/03/27 05:36:44;;;;;;;103.33;62.17;;;;;;;6.56;56.38;99136.27;2177078;81;21366;-78
2021/03/27 05:39:45;;;;;;;107.83;62.97;;;;;;;6.48;56.03;99134.72;2177239;81;21236;-78
2021/03/27 05:42:46;;;;;;;108.57;64.53;;;;;;;6.48;56.03;99138.61;2177073;81;21133;-77
2021/03/27 05:45:48;;;;;;;102.20;59.30;;;;;;;6.46;56.82;99135.08;2177252;81;21137;-78
2021/03/27 05:48:49;;;;;;;91.73;55.33;;;;;;;6.48;57.08;99128.65;2177503;81;21122;-78
2021/03/27 05:51:50;;;;;;;99.93;59.33;;;;;;;6.47;57.54;99125.59;2178562;81;21269;-77
2021/03/27 05:54:51;;;;;;;103.43;62.87;;;;;;;6.46;57.19;99127.72;2167825;81;21150;-79
2021/03/27 05:57:52;;;;;;;112.90;59.57;;;;;;;6.79;57.07;99130.08;2160590;82;21091;-78
2021/03/27 06:00:54;;;;;;;101.67;61.80;;;;;;;6.79;57.07;99130.08;2160798;82;21242;-77
2021/03/27 06:03:55;;;;;;;94.40;59.80;;;;;;;7.26;56.73;99129.38;2160641;82;21245;-78
2021/03/27 06:06:56;;;;;;;104.00;60.27;;;;;;;7.26;56.73;99129.38;2160628;82;21103;-77
2021/03/27 06:09:57;;;;;;;103.93;63.07;;;;;;;7.48;56.17;99123.08;2160193;82;21189;-77
2021/03/27 06:12:58;;;;;;;109.77;60.87;;;;;;;7.64;55.75;99126.16;2160248;82;21441;-78
2021/03/27 06:15:59;;;;;;;107.70;61.30;;;;;;;7.88;55.44;99125.09;2160517;82;21249;-78
2021/03/27 06:19:00;;;;;;;90.63;56.47;;;;;;;8.07;55.12;99123.44;2160959;82;21269;-77
2021/03/27 06:22:01;;;;;;;94.03;58.07;;;;;;;8.08;54.94;99116.10;2160642;82;21118;-78
2021/03/27 06:25:02;;;;;;;99.17;59.30;;;;;;;8.06;54.78;99120.80;2161646;82;21154;-78
2021/03/27 06:28:04;;;;;;;92.63;56.33;;;;;;;8.08;54.86;99121.72;2161435;82;21138;-78
2021/03/27 06:31:05;;;;;;;95.70;59.20;;;;;;;8.18;54.75;99118.09;2160694;82;21305;-78
2021/03/27 06:34:06;;;;;;;94.27;58.80;;;;;;;8.44;54.62;99113.58;2161478;82;21142;-78
2021/03/27 06:37:07;;;;;;;91.80;56.70;;;;;;;8.75;54.02;99104.81;2161561;82;21119;-78
2021/03/27 06:40:09;;;;;;;87.10;57.13;;;;;;;8.92;53.62;99104.77;2161110;82;21241;-78
2021/03/27 06:43:10;;;;;;;87.73;57.70;;;;;;;9.18;53.42;99105.77;2161209;82;21139;-78
2021/03/27 06:46:11;;;;;;;92.70;56.47;;;;;;;9.39;52.64;99110.13;2161715;82;21251;-78
2021/03/27 06:49:12;;;;;;;84.93;55.30;;;;;;;9.53;52.41;99095.64;2162030;82;21195;-79
2021/03/27 06:52:13;;;;;;;86.07;56.73;;;;;;;9.69;52.17;99101.19;2162161;82;21147;-78
2021/03/27 06:55:14;;;;;;;109.37;54.97;;;;;;;9.73;51.77;99095.19;2160956;81;21167;-78
2021/03/27 06:58:15;;;;;;;94.33;59.17;;;;;;;9.83;51.52;99095.38;2161936;82;21140;-79
2021/03/27 07:01:16;;;;;;;102.93;58.57;;;;;;;9.94;51.74;99094.70;2161798;82;21110;-78
2021/03/27 07:04:17;;;;;;;95.63;55.83;;;;;;;10.12;51.43;99097.64;2161732;82;21126;-79
2021/03/27 07:07:18;;;;;;;86.67;54.33;;;;;;;10.30;51.00;99099.30;2161925;82;21150;-78
2021/03/27 07:10:19;;;;;;;81.70;54.10;;;;;;;10.40;50.82;99093.80;2161725;82;21544;-78
2021/03/27 07:13:20;;;;;;;89.60;57.33;;;;;;;10.52;50.73;99088.81;2160855;82;21438;-79
2021/03/27 07:16:21;;;;;;;89.50;56.03;;;;;;;10.74;50.55;99096.13;2161253;82;21139;-78
2021/03/27 07:19:23;;;;;;;78.13;53.30;;;;;;;10.87;50.22;99091.95;2162006;82;21150;-78
2021/03/27 07:22:25;;;;;;;96.20;55.63;;;;;;;11.02;50.11;99103.05;2160479;82;21126;-77
2021/03/27 07:25:28;;;;;;;79.77;54.25;;;;;;;11.48;50.02;99096.30;2160717;82;21266;-78
2021/03/27 07:28:29;;;;;;;84.45;54.45;;;;;;;11.90;49.21;99098.98;2160272;82;21221;-78
2021/03/27 07:31:30;;;;;;;93.42;52.62;;;;;;;11.99;48.73;99096.89;2159993;82;21269;-77
2021/03/27 07:34:31;;;;;;;75.37;52.25;;;;;;;11.95;48.60;99087.25;2159907;82;21126;-78
2021/03/27 07:37:32;;;;;;;83.17;55.67;;;;;;;12.13;48.95;99085.69;2159661;82;21249;-78
2021/03/27 07:40:33;;;;;;;85.35;52.95;;;;;;;12.43;48.43;99085.55;2161177;82;21121;-78
2021/03/27 07:43:35;;;;;;;76.40;51.23;;;;;;;12.50;47.83;99081.23;2160621;82;21134;-79
2021/03/27 07:46:36;;;;;;;78.87;51.58;;;;;;;12.54;47.80;99077.34;2160123;82;21642;-79
2021/03/27 07:49:37;;;;;;;82.22;52.03;;;;;;;12.32;47.92;99080.66;2160320;82;21472;-78
2021/03/27 07:52:38;;;;;;;81.70;53.83;;;;;;;12.23;48.11;99077.53;2160014;82;21579;-78
2021/03/27 07:55:39;;;;;;;74.85;49.42;;;;;;;12.44;48.50;99072.91;2166776;81;21153;-78
2021/03/27 07:58:40;;;;;;;73.25;49.53;;;;;;;12.72;47.85;99068.75;2170691;82;21257;-78
2021/03/27 08:01:41;;;;;;;64.47;46.02;;;;;;;12.90;47.38;99071.48;2170496;82;21138;-78
2021/03/27 08:04:43;;;;;;;67.42;45.60;;;;;;;13.06;46.86;99075.98;2171260;82;21121;-78
2021/03/27 08:07:44;;;;;;;69.45;48.40;;;;;;;13.16;46.11;99070.34;2170897;82;21212;-78
2021/03/27 08:10:45;;;;;;;73.15;48.17;;;;;;;13.24;46.07;99070.42;2170251;82;21194;-77
2021/03/27 08:13:46;;;;;;;72.50;50.78;;;;;;;13.39;45.88;99073.98;2171142;82;21133;-77
2021/03/27 08:16:47;;;;;;;76.60;51.05;;;;;;;13.53;45.58;99078.41;2170572;82;21365;-77
2021/03/27 08:19:48;;;;;;;70.12;48.83;;;;;;;13.71;45.84;99075.41;2170170;82;21261;-78
2021/03/27 08:22:49;;;;;;;77.80;51.35;;;;;;;13.93;45.09;99079.43;2169334;82;21240;-78
2021/03/27 08:25:50;;;;;;;71.87;50.08;;;;;;;14.03;45.40;99076.83;2169003;82;21157;-78
2021/03/27 08:28:51;;;;;;;65.05;45.50;;;;;;;14.20;45.05;99075.97;2169823;82;21252;-78
2021/03/27 08:31:52;;;;;;;60.35;44.27;;;;;;;14.40;44.92;99072.92;2169853;82;21467;-79
2021/03/27 08:34:53;;;;;;;60.80;42.90;;;;;;;14.62;44.37;99069.44;2169348;82;21138;-78
2021/03/27 08:37:54;;;;;;;82.47;44.53;;;;;;;14.88;43.69;99059.37;2170146;82;21268;-78
2021/03/27 08:40:55;;;;;;;57.13;42.15;;;;;;;15.04;43.19;99061.08;2169923;82;21118;-79
2021/03/27 08:43:56;;;;;;;65.30;42.62;;;;;;;15.25;42.91;99061.45;2169914;82;21252;-78
2021/03/27 08:46:57;;;;;;;182.43;49.53;;;;;;;15.39;42.06;99058.77;2169561;82;21142;-78
2021/03/27 08:49:58;;;;;;;61.83;41.40;;;;;;;15.53;41.37;99051.69;2169947;82;21181;-77
2021/03/27 08:52:59;;;;;;;55.63;39.35;;;;;;;15.67;41.47;99045.98;2170497;82;21110;-78
2021/03/27 08:56:00;;;;;;;62.40;38.33;;;;;;;15.79;40.61;99041.97;2175478;82;21428;-78
2021/03/27 08:59:02;;;;;;;51.55;36.42;;;;;;;15.68;40.21;99038.96;2177663;81;21126;-78
2021/03/27 09:02:03;;;;;;;51.25;36.23;;;;;;;15.45;40.34;99039.89;2178736;81;21667;-78
2021/03/27 09:05:04;;;;;;;51.05;35.73;;;;;;;15.43;40.26;99032.89;2177473;81;21102;-78
2021/03/27 09:08:05;;;;;;;71.87;37.75;;;;;;;15.35;40.46;99032.05;2177224;81;21523;-79
2021/03/27 09:11:06;;;;;;;57.62;38.50;;;;;;;15.58;40.53;99028.89;2179062;81;21276;-79
2021/03/27 09:14:07;;;;;;;75.03;35.73;;;;;;;15.83;40.53;99027.91;2179604;81;21283;-81
2021/03/27 09:17:08;;;;;;;60.95;35.95;;;;;;;16.08;39.92;99023.78;2178942;81;21483;-78
2021/03/27 09:20:09;;;;;;;53.35;36.77;;;;;;;16.23;39.84;99012.69;2178153;81;21130;-77
2021/03/27 09:23:10;;;;;;;50.58;33.10;;;;;;;16.43;39.86;99019.55;2178661;81;21138;-77
2021/03/27 09:26:11;;;;;;;47.25;31.97;;;;;;;16.68;39.32;99013.22;2177930;81;21243;-78
2021/03/27 09:29:12;;;;;;;46.02;30.77;;;;;;;16.91;38.75;99008.16;2177779;81;21558;-78
2021/03/27 09:32:13;;;;;;;46.42;26.48;;;;;;;17.07;37.82;99014.55;2178412;81;21261;-77
2021/03/27 09:35:16;;;;;;;43.28;25.62;;;;;;;17.17;36.79;99008.28;2177732;81;21139;-76
2021/03/27 09:38:17;;;;;;;41.13;26.75;;;;;;;17.31;36.39;99005.47;2177646;81;21526;-77
2021/03/27 09:41:18;;;;;;;36.10;25.50;;;;;;;17.44;35.84;98998.30;2177788;81;21232;-78
2021/03/27 09:44:19;;;;;;;41.53;24.70;;;;;;;17.59;35.84;99008.65;2177709;81;21158;-78
2021/03/27 09:47:21;;;;;;;74.22;23.25;;;;;;;17.75;35.69;98994.81;2177906;81;21117;-78
2021/03/27 09:50:22;;;;;;;34.78;25.70;;;;;;;17.92;35.07;99002.48;2177891;81;21312;-78
2021/03/27 09:53:26;;;;;;;41.58;24.95;;;;;;;18.07;35.55;98994.33;2177703;81;21146;-78
2021/03/27 09:56:32;;;;;;;36.68;24.70;;;;;;;18.25;34.83;98991.86;2177957;81;21288;-77
2021/03/27 09:59:30;;;;;;;39.40;23.83;;;;;;;18.38;35.07;98984.16;2177823;82;21267;-78
2021/03/27 10:02:31;;;;;;;43.15;25.08;;;;;;;18.54;34.74;98984.30;2177625;81;21444;-77
2021/03/27 10:05:32;;;;;;;36.15;24.90;;;;;;;18.62;34.16;98983.75;2178313;81;21188;-77
2021/03/27 10:08:34;;;;;;;34.53;22.93;;;;;;;18.66;33.78;98981.47;2177349;82;21102;-78
2021/03/27 10:11:35;;;;;;;36.15;23.85;;;;;;;18.74;34.33;98977.36;2177024;81;21289;-77
2021/03/27 10:14:36;;;;;;;35.78;23.05;;;;;;;18.83;33.50;98973.22;2178723;81;21424;-78
2021/03/27 10:17:37;;;;;;;31.95;21.95;;;;;;;18.93;33.72;98970.81;2178517;81;21102;-78
2021/03/27 10:20:38;;;;;;;39.18;22.45;;;;;;;19.04;33.61;98959.56;2177819;81;21252;-77
2021/03/27 10:23:39;;;;;;;32.50;20.77;;;;;;;19.22;33.12;98970.70;2177583;81;21094;-77
2021/03/27 10:26:40;;;;;;;29.72;20.88;;;;;;;19.36;33.15;98977.89;2177751;81;21133;-78
2021/03/27 10:29:42;;;;;;;36.90;23.38;;;;;;;19.34;31.68;98968.66;2178338;81;21186;-78
2021/03/27 10:32:43;;;;;;;35.95;22.70;;;;;;;19.35;32.60;98963.79;2178061;82;21256;-78
2021/03/27 10:35:44;;;;;;;31.87;19.52;;;;;;;19.50;31.93;98972.30;2176671;81;21102;-79
2021/03/27 10:38:45;;;;;;;33.25;19.35;;;;;;;19.65;31.98;98955.65;2177646;81;21106;-78
2021/03/27 10:41:46;;;;;;;40.58;18.20;;;;;;;19.83;31.39;98961.42;2178617;81;21138;-78
2021/03/27 10:44:47;;;;;;;34.18;14.53;;;;;;;19.94;30.06;98965.59;2177931;81;21157;-78
2021/03/27 10:47:49;;;;;;;26.15;13.90;;;;;;;20.06;28.22;98961.78;2177785;81;21102;-77
2021/03/27 10:50:50;;;;;;;26.48;14.83;;;;;;;20.15;29.42;98962.88;2177411;81;21177;-78
2021/03/27 10:53:51;;;;;;;22.37;14.63;;;;;;;20.40;29.04;98954.33;2177204;81;21126;-78
2021/03/27 10:56:52;;;;;;;75.97;17.60;;;;;;;20.45;28.71;98957.73;2177332;81;21373;-80
2021/03/27 10:59:53;;;;;;;67.72;16.27;;;;;;;20.43;27.84;98959.55;2177578;81;21295;-78
2021/03/27 11:02:54;;;;;;;31.55;15.63;;;;;;;20.57;27.78;98957.41;2177404;81;22190;-78
2021/03/27 11:05:55;;;;;;;65.12;18.50;;;;;;;20.61;27.95;98951.98;2176789;81;21133;-78
2021/03/27 11:08:56;;;;;;;25.43;15.38;;;;;;;20.55;27.88;98943.31;2175586;81;21134;-78
2021/03/27 11:11:57;;;;;;;26.50;15.35;;;;;;;20.55;27.51;98949.49;2176551;81;21281;-78
2021/03/27 11:14:58;;;;;;;33.70;14.58;;;;;;;20.62;27.45;98951.52;2176863;81;21240;-78
2021/03/27 11:17:59;;;;;;;23.15;15.03;;;;;;;20.74;27.08;98949.86;2177564;81;21252;-77
2021/03/27 11:21:00;;;;;;;40.95;16.25;;;;;;;20.67;27.92;98944.31;2177692;81;21137;-78
2021/03/27 11:24:01;;;;;;;23.52;14.73;;;;;;;20.52;26.98;98942.08;2177965;81;21295;-78
2021/03/27 11:27:02;;;;;;;28.47;15.95;;;;;;;20.49;27.67;98944.35;2177672;81;21446;-77
2021/03/27 11:30:03;;;;;;;23.22;14.80;;;;;;;20.51;28.20;98948.29;2177995;81;21491;-78
2021/03/27 11:33:04;;;;;;;26.95;14.98;;;;;;;20.62;26.71;98943.56;2177986;81;21158;-77
2021/03/27 11:36:05;;;;;;;50.55;15.25;;;;;;;20.70;26.50;98936.27;2178520;81;21251;-79
2021/03/27 11:39:06;;;;;;;27.73;12.88;;;;;;;20.78;27.36;98942.69;2179127;81;21161;-79
2021/03/27 11:42:07;;;;;;;49.05;14.35;;;;;;;20.81;26.12;98939.53;2178727;81;21144;-78
2021/03/27 11:45:08;;;;;;;21.07;13.43;;;;;;;20.75;26.20;98937.47;2178832;81;21122;-77
2021/03/27 11:48:09;;;;;;;20.08;11.50;;;;;;;20.63;26.99;98941.33;2178396;81;21842;-78
2021/03/27 11:51:11;;;;;;;25.52;11.57;;;;;;;20.65;26.22;98942.16;2179094;81;21540;-78
2021/03/27 11:54:12;;;;;;;84.40;15.30;;;;;;;20.57;26.20;98942.82;2178454;81;21146;-78
2021/03/27 11:57:13;;;;;;;15.80;12.00;;;;;;;20.29;26.06;98948.81;2164582;81;21156;-77
2021/03/27 12:03:33;;;;;;;18.70;11.00;;;;;;;19.95;27.17;98953.22;2161077;82;21122;-78
2021/03/27 12:06:34;;;;;;;20.32;11.15;;;;;;;19.95;26.85;98940.84;2161360;82;21138;-78
2021/03/27 12:09:36;;;;;;;18.70;11.18;;;;;;;20.07;27.28;98942.31;2160392;82;21292;-77
2021/03/27 12:12:37;;;;;;;23.07;12.47;;;;;;;20.26;26.82;98946.24;2161374;82;21258;-78
2021/03/27 12:15:38;;;;;;;22.58;12.88;;;;;;;20.45;27.48;98948.45;2160657;82;21556;-77
2021/03/27 12:18:39;;;;;;;26.25;13.00;;;;;;;20.51;26.35;98956.24;2160415;82;21249;-77
2021/03/27 12:21:40;;;;;;;20.05;12.43;;;;;;;20.39;26.41;98953.88;2160729;82;21249;-77
2021/03/27 12:24:41;;;;;;;19.85;12.10;;;;;;;20.42;27.66;98956.03;2160594;82;21162;-77
2021/03/27 12:27:42;;;;;;;17.90;12.23;;;;;;;20.43;27.28;98956.45;2161160;82;21253;-77
2021/03/27 12:30:44;;;;;;;23.18;12.95;;;;;;;20.37;26.91;98957.90;2160999;82;21273;-78
2021/03/27 12:33:45;;;;;;;22.87;12.68;;;;;;;20.11;26.53;98966.96;2160411;82;21598;-77
2021/03/27 12:36:46;;;;;;;19.02;12.43;;;;;;;19.77;27.26;98958.92;2160118;82;21111;-77
2021/03/27 12:39:47;;;;;;;20.25;13.03;;;;;;;19.59;27.99;98967.70;2160509;82;21257;-77
2021/03/27 12:42:48;;;;;;;20.35;13.03;;;;;;;19.37;28.43;98973.02;2161370;82;21427;-76
2021/03/27 12:45:49;;;;;;;25.27;14.87;;;;;;;18.97;28.85;98975.14;2161553;82;21257;-77
2021/03/27 12:48:50;;;;;;;24.65;14.68;;;;;;;18.67;29.38;98974.41;2161843;82;21598;-77
2021/03/27 12:51:52;;;;;;;35.80;13.28;;;;;;;18.42;29.62;98989.80;2139053;82;21568;-78
2021/03/27 12:54:53;;;;;;;19.07;12.43;;;;;;;18.18;29.47;98992.83;2160987;82;21273;-78
2021/03/27 12:57:54;;;;;;;17.70;9.73;;;;;;;18.08;29.41;99002.67;2178295;82;21161;-78
2021/03/27 13:00:55;;;;;;;20.52;9.08;;;;;;;18.17;29.43;99006.94;2178805;81;21141;-78
2021/03/27 13:03:56;;;;;;;18.95;7.70;;;;;;;18.34;30.10;98998.31;2178186;81;21118;-78
2021/03/27 13:06:57;;;;;;;19.37;7.50;;;;;;;18.49;29.46;99002.02;2177257;81;21420;-78
2021/03/27 13:09:58;;;;;;;57.25;9.83;;;;;;;18.45;29.76;99005.16;2177265;81;21193;-77
2021/03/27 13:12:59;;;;;;;29.70;9.70;;;;;;;18.19;30.61;99012.63;2178298;81;21158;-77
2021/03/27 13:16:00;;;;;;;16.35;7.28;;;;;;;17.93;31.37;99031.52;2177967;81;21106;-78
2021/03/27 13:19:03;;;;;;;18.40;7.37;;;;;;;17.54;32.14;99040.83;2178183;81;21137;-78
2021/03/27 13:22:05;;;;;;;12.70;7.05;;;;;;;17.19;33.01;99026.28;2178140;81;21142;-76
2021/03/27 13:25:06;;;;;;;8.03;6.65;;;;;;;16.93;33.81;99040.20;2178314;81;21308;-78
2021/03/27 13:28:07;;;;;;;8.45;6.00;;;;;;;16.69;34.70;99039.13;2178077;81;21167;-77
2021/03/27 13:31:08;;;;;;;15.75;11.97;;;;;;;16.45;34.68;99045.44;2178245;81;21460;-78
2021/03/27 13:34:09;;;;;;;19.52;15.95;;;;;;;16.32;35.09;99044.66;2178340;81;21408;-77
2021/03/27 13:37:10;;;;;;;19.62;10.18;;;;;;;16.31;35.53;99050.81;2178994;81;21125;-77
2021/03/27 13:40:11;;;;;;;23.92;15.30;;;;;;;16.28;35.75;99056.11;2178376;81;21098;-77
2021/03/27 13:43:12;;;;;;;51.98;29.82;;;;;;;16.27;36.25;99051.73;2178912;82;21578;-78
2021/03/27 13:46:13;;;;;;;23.25;15.15;;;;;;;16.26;36.86;99049.98;2178909;81;21372;-77
2021/03/27 13:49:17;;;;;;;21.23;15.32;;;;;;;16.26;36.37;99048.66;2178802;81;21129;-77
2021/03/27 13:52:18;;;;;;;16.50;10.90;;;;;;;16.32;36.68;99052.56;2179045;81;21129;-77
2021/03/27 13:55:19;;;;;;;27.65;15.45;;;;;;;16.37;36.55;99048.13;2179028;81;21118;-77
2021/03/27 13:58:20;;;;;;;35.98;21.75;;;;;;;16.42;36.23;99043.70;2178963;81;21137;-77